Time;durP1;ratioP1;P1;durP2;ratioP2;P2;SDS_P1;SDS_P2;PMS_P1;PMS_P2;Temp;Humidity;BMP_temperature;BMP_pressure;BME280_temperature;BME280_humidity;BME280_pressure;Samples;Min_cycle;Max_cycle;Signal;HPM_P1;HPM_P2
2022/08/01 00:01:48;;;;;;;1.50;1.50;;;;;;;;;;5026741;28;20225;-62
2022/08/01 00:04:14;;;;;;;1.50;1.50;;;;;;;;;;5021008;28;20200;-61
2022/08/01 00:06:40;;;;;;;1.50;1.50;;;;;;;;;;5022852;28;20204;-62
2022/08/01 00:09:06;;;;;;;1.40;1.40;;;;;;;;;;5027811;28;20956;-61
2022/08/01 00:11:32;;;;;;;1.83;1.73;;;;;;;;;;5031588;28;20703;-62
2022/08/01 00:13:58;;;;;;;1.53;1.53;;;;;;;;;;5034209;28;20312;-62
2022/08/01 00:16:24;;;;;;;1.57;1.57;;;;;;;;;;5025319;28;20345;-62
2022/08/01 00:18:50;;;;;;;1.50;1.50;;;;;;;;;;5026501;28;21198;-62
2022/08/01 00:21:16;;;;;;;1.60;1.60;;;;;;;;;;5038809;28;20240;-62
2022/08/01 00:23:43;;;;;;;1.70;1.70;;;;;;;;;;5030227;28;20235;-62
2022/08/01 00:26:09;;;;;;;1.73;1.70;;;;;;;;;;5029743;28;20554;-62
2022/08/01 00:28:35;;;;;;;1.57;1.57;;;;;;;;;;5027302;28;20220;-61
2022/08/01 00:31:01;;;;;;;1.50;1.50;;;;;;;;;;5012417;28;20216;-62
2022/08/01 00:33:27;;;;;;;1.53;1.53;;;;;;;;;;5026792;28;20212;-62
2022/08/01 00:35:53;;;;;;;1.50;1.50;;;;;;;;;;5019380;28;20215;-61
2022/08/01 00:38:18;;;;;;;1.53;1.53;;;;;;;;;;5025885;28;20249;-62
2022/08/01 00:40:44;;;;;;;1.40;1.40;;;;;;;;;;5033632;28;20216;-62
2022/08/01 00:43:10;;;;;;;1.57;1.57;;;;;;;;;;5028304;28;20291;-61
2022/08/01 00:45:36;;;;;;;1.30;1.30;;;;;;;;;;5022893;28;20230;-61
2022/08/01 00:48:02;;;;;;;1.60;1.60;;;;;;;;;;5022091;28;20626;-62
2022/08/01 00:50:28;;;;;;;1.30;1.30;;;;;;;;;;5026397;28;21551;-61
2022/08/01 00:52:55;;;;;;;1.50;1.50;;;;;;;;;;5025790;28;20219;-62
2022/08/01 00:55:21;;;;;;;1.30;1.30;;;;;;;;;;5014652;28;21117;-62
2022/08/01 00:57:47;;;;;;;1.20;1.20;;;;;;;;;;5026287;28;20323;-61
2022/08/01 01:00:13;;;;;;;1.33;1.33;;;;;;;;;;5018069;28;20581;-61
2022/08/01 01:02:39;;;;;;;1.50;1.50;;;;;;;;;;5033248;28;20215;-61
2022/08/01 01:05:05;;;;;;;1.60;1.60;;;;;;;;;;5026181;28;20224;-61
2022/08/01 01:07:54;;;;;;;1.50;1.50;;;;;;;;;;5025016;28;20257;-61
2022/08/01 01:10:26;;;;;;;1.40;1.40;;;;;;;;;;5021484;28;20267;-62
2022/08/01 01:12:59;;;;;;;1.50;1.50;;;;;;;;;;5025249;28;20193;-61
2022/08/01 01:15:36;;;;;;;1.50;1.50;;;;;;;;;;5022149;28;20220;-61
2022/08/01 01:18:07;;;;;;;1.50;1.50;;;;;;;;;;5000699;28;20228;-61
2022/08/01 01:20:37;;;;;;;1.40;1.40;;;;;;;;;;5009528;28;20336;-62
2022/08/01 01:23:11;;;;;;;1.50;1.50;;;;;;;;;;5023862;28;20986;-61
2022/08/01 01:25:37;;;;;;;1.63;1.63;;;;;;;;;;5012350;28;20266;-60
2022/08/01 01:28:03;;;;;;;1.50;1.50;;;;;;;;;;5028883;28;20223;-61
2022/08/01 01:30:29;;;;;;;1.50;1.50;;;;;;;;;;5028361;28;20220;-62
2022/08/01 01:32:55;;;;;;;1.30;1.30;;;;;;;;;;5023451;28;20764;-62
2022/08/01 01:35:22;;;;;;;1.60;1.60;;;;;;;;;;5013018;28;20249;-61
2022/08/01 01:37:48;;;;;;;1.50;1.50;;;;;;;;;;5005877;28;21030;-61
2022/08/01 01:40:14;;;;;;;1.40;1.40;;;;;;;;;;5020309;28;20219;-62
2022/08/01 01:42:40;;;;;;;1.83;1.73;;;;;;;;;;5023902;28;20202;-62
2022/08/01 01:45:06;;;;;;;1.57;1.57;;;;;;;;;;5028627;28;20220;-62
2022/08/01 01:47:32;;;;;;;1.70;1.70;;;;;;;;;;5020667;28;20273;-61
2022/08/01 01:49:58;;;;;;;1.50;1.50;;;;;;;;;;5009446;28;20228;-61
2022/08/01 01:52:24;;;;;;;1.50;1.50;;;;;;;;;;5005309;28;20293;-61
2022/08/01 01:54:51;;;;;;;1.60;1.60;;;;;;;;;;5023090;28;20225;-61
2022/08/01 01:57:17;;;;;;;1.50;1.50;;;;;;;;;;5013029;28;20622;-61
2022/08/01 01:59:43;;;;;;;1.60;1.60;;;;;;;;;;5028680;28;20781;-61
2022/08/01 02:02:09;;;;;;;1.47;1.47;;;;;;;;;;5003439;28;20242;-61
2022/08/01 02:04:38;;;;;;;1.40;1.40;;;;;;;;;;5029199;28;20239;-61
2022/08/01 02:07:04;;;;;;;1.90;1.80;;;;;;;;;;5024326;28;20618;-61
2022/08/01 02:09:30;;;;;;;1.60;1.60;;;;;;;;;;5025928;28;20231;-61
2022/08/01 02:11:56;;;;;;;1.40;1.40;;;;;;;;;;5026525;28;20234;-61
2022/08/01 02:14:22;;;;;;;1.40;1.40;;;;;;;;;;5028850;28;21317;-61
2022/08/01 02:16:49;;;;;;;1.40;1.40;;;;;;;;;;5023188;28;20287;-61
2022/08/01 02:19:15;;;;;;;1.60;1.60;;;;;;;;;;5027145;28;20239;-61
2022/08/01 02:21:46;;;;;;;1.50;1.50;;;;;;;;;;5028093;28;21338;-61
2022/08/01 02:24:17;;;;;;;1.40;1.40;;;;;;;;;;5046351;28;20221;-61
2022/08/01 02:26:44;;;;;;;1.20;1.20;;;;;;;;;;5038698;28;21005;-61
2022/08/01 02:29:11;;;;;;;1.40;1.40;;;;;;;;;;5028609;28;20220;-61
2022/08/01 02:31:39;;;;;;;1.30;1.30;;;;;;;;;;5022589;28;21044;-61
2022/08/01 02:34:05;;;;;;;1.47;1.47;;;;;;;;;;5028078;28;20227;-61
2022/08/01 02:36:31;;;;;;;1.60;1.60;;;;;;;;;;5016797;28;20228;-61
2022/08/01 02:38:57;;;;;;;1.40;1.40;;;;;;;;;;5028715;28;20639;-61
2022/08/01 02:41:24;;;;;;;1.43;1.43;;;;;;;;;;5014892;28;20277;-61
2022/08/01 02:43:50;;;;;;;1.30;1.30;;;;;;;;;;5015595;28;20226;-61
2022/08/01 02:46:17;;;;;;;1.50;1.50;;;;;;;;;;5012214;28;20295;-61
2022/08/01 02:48:43;;;;;;;1.50;1.50;;;;;;;;;;4996534;28;20271;-61
2022/08/01 02:51:09;;;;;;;1.60;1.60;;;;;;;;;;4992900;28;20228;-61
2022/08/01 02:53:36;;;;;;;1.30;1.30;;;;;;;;;;5023729;28;20228;-61
2022/08/01 02:56:02;;;;;;;1.60;1.60;;;;;;;;;;5019757;28;20473;-61
2022/08/01 02:58:29;;;;;;;1.43;1.43;;;;;;;;;;5010672;28;20690;-61
2022/08/01 03:00:55;;;;;;;1.50;1.50;;;;;;;;;;5025336;28;20230;-61
2022/08/01 03:03:21;;;;;;;1.50;1.50;;;;;;;;;;5020974;28;20224;-61
2022/08/01 03:05:46;;;;;;;1.60;1.60;;;;;;;;;;5015034;28;20665;-61
2022/08/01 03:08:13;;;;;;;1.63;1.63;;;;;;;;;;5022136;28;20267;-61
2022/08/01 03:10:40;;;;;;;1.97;1.87;;;;;;;;;;5026381;28;20778;-61
2022/08/01 03:13:06;;;;;;;1.60;1.60;;;;;;;;;;5028556;28;20282;-61
2022/08/01 03:15:33;;;;;;;1.80;1.70;;;;;;;;;;5022364;28;20203;-61
2022/08/01 03:17:59;;;;;;;1.83;1.73;;;;;;;;;;5021146;28;20239;-61
2022/08/01 03:20:25;;;;;;;1.70;1.70;;;;;;;;;;5028001;28;20307;-61
2022/08/01 03:22:52;;;;;;;1.73;1.70;;;;;;;;;;5019377;28;20223;-62
2022/08/01 03:25:18;;;;;;;1.80;1.70;;;;;;;;;;5040432;28;20238;-60
2022/08/01 03:27:44;;;;;;;1.77;1.70;;;;;;;;;;5029432;28;20189;-60
2022/08/01 03:30:10;;;;;;;1.90;1.80;;;;;;;;;;5022180;28;20187;-61
2022/08/01 03:32:36;;;;;;;1.80;1.70;;;;;;;;;;5030812;28;20753;-61
2022/08/01 03:35:02;;;;;;;1.60;1.60;;;;;;;;;;5015030;28;20228;-61
2022/08/01 03:37:30;;;;;;;1.60;1.60;;;;;;;;;;5027923;28;20337;-61
2022/08/01 03:40:01;;;;;;;1.50;1.50;;;;;;;;;;5015903;28;20192;-61
2022/08/01 03:42:32;;;;;;;1.50;1.50;;;;;;;;;;5028653;28;20635;-61
2022/08/01 03:44:59;;;;;;;1.40;1.40;;;;;;;;;;5014027;28;20225;-61
2022/08/01 03:47:26;;;;;;;1.40;1.40;;;;;;;;;;5013338;28;20274;-61
2022/08/01 03:49:53;;;;;;;1.50;1.50;;;;;;;;;;5025366;28;20303;-61
2022/08/01 03:52:19;;;;;;;1.37;1.37;;;;;;;;;;5030519;28;20216;-61
2022/08/01 03:54:46;;;;;;;1.20;1.20;;;;;;;;;;5031333;28;20224;-61
2022/08/01 03:57:12;;;;;;;1.50;1.50;;;;;;;;;;5013263;28;20708;-61
2022/08/01 03:59:38;;;;;;;1.30;1.30;;;;;;;;;;5022994;28;20235;-62
2022/08/01 04:02:04;;;;;;;1.33;1.33;;;;;;;;;;5021297;28;20960;-61
2022/08/01 04:04:30;;;;;;;1.40;1.40;;;;;;;;;;5025290;28;20205;-61
2022/08/01 04:06:56;;;;;;;1.30;1.30;;;;;;;;;;4996830;28;20310;-61
2022/08/01 04:09:22;;;;;;;1.33;1.33;;;;;;;;;;5024370;28;22258;-61
2022/08/01 04:11:48;;;;;;;1.40;1.40;;;;;;;;;;5023164;28;20200;-61
2022/08/01 04:14:15;;;;;;;1.30;1.30;;;;;;;;;;5022404;28;20197;-61
2022/08/01 04:16:41;;;;;;;1.30;1.30;;;;;;;;;;5026587;28;20239;-61
2022/08/01 04:19:07;;;;;;;1.60;1.60;;;;;;;;;;5027451;28;20970;-61
2022/08/01 04:21:33;;;;;;;1.30;1.30;;;;;;;;;;5021074;28;20228;-61
2022/08/01 04:24:00;;;;;;;1.20;1.20;;;;;;;;;;5025822;28;22541;-61
2022/08/01 04:26:26;;;;;;;1.30;1.30;;;;;;;;;;5038468;28;20623;-62
2022/08/01 04:28:52;;;;;;;1.30;1.30;;;;;;;;;;5014375;28;20226;-61
2022/08/01 04:31:18;;;;;;;1.40;1.40;;;;;;;;;;5016018;28;20282;-61
2022/08/01 04:33:46;;;;;;;1.40;1.40;;;;;;;;;;5015596;28;21178;-61
2022/08/01 04:36:12;;;;;;;1.20;1.20;;;;;;;;;;5034181;28;20271;-61
2022/08/01 04:38:38;;;;;;;1.43;1.43;;;;;;;;;;5020650;28;20216;-62
2022/08/01 04:41:06;;;;;;;1.40;1.40;;;;;;;;;;5021781;28;20323;-61
2022/08/01 04:43:32;;;;;;;1.50;1.50;;;;;;;;;;4999545;28;20823;-61
2022/08/01 04:45:58;;;;;;;1.40;1.40;;;;;;;;;;5005200;28;20227;-61
2022/08/01 04:48:24;;;;;;;1.43;1.43;;;;;;;;;;5021516;28;20282;-61
2022/08/01 04:50:50;;;;;;;1.20;1.20;;;;;;;;;;5024917;28;20231;-61
2022/08/01 04:53:17;;;;;;;1.40;1.40;;;;;;;;;;5022597;28;20204;-61
2022/08/01 04:55:43;;;;;;;1.30;1.30;;;;;;;;;;5018892;28;20218;-61
2022/08/01 04:58:10;;;;;;;1.40;1.40;;;;;;;;;;5024461;28;20652;-61
2022/08/01 05:00:36;;;;;;;1.50;1.50;;;;;;;;;;5001169;28;20322;-62
2022/08/01 05:03:02;;;;;;;1.50;1.50;;;;;;;;;;5022478;28;20236;-61
2022/08/01 05:05:28;;;;;;;1.57;1.57;;;;;;;;;;5022578;28;20255;-61
2022/08/01 05:07:55;;;;;;;1.50;1.50;;;;;;;;;;5009312;28;20188;-61
2022/08/01 05:10:21;;;;;;;1.50;1.50;;;;;;;;;;5012889;28;20297;-61
2022/08/01 05:12:47;;;;;;;1.50;1.50;;;;;;;;;;5008325;28;20192;-61
2022/08/01 05:15:13;;;;;;;1.60;1.60;;;;;;;;;;5015738;28;20189;-61
2022/08/01 05:17:39;;;;;;;1.30;1.30;;;;;;;;;;5015932;28;20216;-60
2022/08/01 05:20:08;;;;;;;1.30;1.30;;;;;;;;;;5012664;28;20236;-61
2022/08/01 05:22:34;;;;;;;1.30;1.30;;;;;;;;;;5020856;28;25091;-61
2022/08/01 05:25:00;;;;;;;1.43;1.43;;;;;;;;;;5024134;28;20216;-61
2022/08/01 05:27:26;;;;;;;1.63;1.63;;;;;;;;;;5013676;28;20196;-61
2022/08/01 05:29:52;;;;;;;1.40;1.40;;;;;;;;;;5011467;28;20281;-60
2022/08/01 05:32:18;;;;;;;1.37;1.37;;;;;;;;;;5018372;28;20189;-60
2022/08/01 05:34:44;;;;;;;1.20;1.20;;;;;;;;;;5014868;28;20522;-61
2022/08/01 05:37:10;;;;;;;1.40;1.40;;;;;;;;;;5014992;28;20705;-60
2022/08/01 05:39:36;;;;;;;1.60;1.60;;;;;;;;;;5024463;28;20298;-60
2022/08/01 05:42:02;;;;;;;1.60;1.60;;;;;;;;;;5026785;28;20207;-60
2022/08/01 05:44:28;;;;;;;2.00;1.90;;;;;;;;;;5024413;28;20271;-60
2022/08/01 05:46:54;;;;;;;1.60;1.60;;;;;;;;;;5025020;28;20201;-60
2022/08/01 05:49:20;;;;;;;1.60;1.60;;;;;;;;;;5021791;28;20192;-60
2022/08/01 05:51:46;;;;;;;1.60;1.60;;;;;;;;;;5027949;28;20680;-60
2022/08/01 05:54:12;;;;;;;1.50;1.50;;;;;;;;;;5027710;28;20200;-60
2022/08/01 05:56:38;;;;;;;1.60;1.60;;;;;;;;;;5026301;28;20241;-60
2022/08/01 05:59:04;;;;;;;1.70;1.70;;;;;;;;;;5024550;28;20188;-60
2022/08/01 06:01:30;;;;;;;2.03;1.93;;;;;;;;;;5027639;28;20200;-60
2022/08/01 06:03:55;;;;;;;1.60;1.60;;;;;;;;;;5022789;28;20343;-60
2022/08/01 06:06:22;;;;;;;1.80;1.70;;;;;;;;;;5027079;28;20236;-60
2022/08/01 06:08:48;;;;;;;1.77;1.73;;;;;;;;;;5024967;28;20185;-60
2022/08/01 06:11:14;;;;;;;1.70;1.70;;;;;;;;;;5025323;28;20207;-60
2022/08/01 06:13:39;;;;;;;1.90;1.80;;;;;;;;;;5026301;28;20210;-60
2022/08/01 06:16:05;;;;;;;1.50;1.50;;;;;;;;;;5025061;28;20188;-60
2022/08/01 06:18:31;;;;;;;1.90;1.80;;;;;;;;;;5028659;28;20299;-60
2022/08/01 06:20:57;;;;;;;1.80;1.70;;;;;;;;;;5007875;28;20288;-60
2022/08/01 06:23:23;;;;;;;1.73;1.63;;;;;;;;;;5003628;28;20231;-60
2022/08/01 06:25:52;;;;;;;1.70;1.70;;;;;;;;;;5012003;28;20221;-60
2022/08/01 06:28:18;;;;;;;1.60;1.60;;;;;;;;;;5005318;28;20204;-60
2022/08/01 06:30:44;;;;;;;1.60;1.60;;;;;;;;;;5010792;28;20201;-60
2022/08/01 06:33:10;;;;;;;2.10;2.00;;;;;;;;;;5006811;28;20305;-60
2022/08/01 06:35:36;;;;;;;1.80;1.70;;;;;;;;;;5012165;28;20270;-60
2022/08/01 06:38:02;;;;;;;1.90;1.80;;;;;;;;;;5006690;28;20233;-60
2022/08/01 06:40:28;;;;;;;1.50;1.50;;;;;;;;;;5014224;28;20690;-60
2022/08/01 06:42:54;;;;;;;2.00;1.90;;;;;;;;;;5013627;28;20264;-60
2022/08/01 06:45:22;;;;;;;1.70;1.70;;;;;;;;;;5008040;28;20318;-60
2022/08/01 06:47:48;;;;;;;1.77;1.70;;;;;;;;;;5009086;28;20298;-60
2022/08/01 06:50:14;;;;;;;1.60;1.60;;;;;;;;;;5005688;28;20698;-60
2022/08/01 06:52:40;;;;;;;1.97;1.87;;;;;;;;;;5001574;28;20189;-60
2022/08/01 06:55:06;;;;;;;1.60;1.60;;;;;;;;;;5003356;28;20204;-60
2022/08/01 06:57:32;;;;;;;1.83;1.73;;;;;;;;;;5009268;28;20233;-60
2022/08/01 06:59:58;;;;;;;1.60;1.60;;;;;;;;;;5007546;28;20189;-60
2022/08/01 07:02:24;;;;;;;1.60;1.60;;;;;;;;;;5000317;28;20263;-60
2022/08/01 07:04:50;;;;;;;1.90;1.80;;;;;;;;;;5007941;28;20234;-60
2022/08/01 07:07:16;;;;;;;1.67;1.67;;;;;;;;;;5006717;28;20638;-61
2022/08/01 07:09:42;;;;;;;1.60;1.60;;;;;;;;;;5014099;28;20200;-60
2022/08/01 07:12:08;;;;;;;1.60;1.60;;;;;;;;;;5008240;28;20229;-60
2022/08/01 07:14:34;;;;;;;1.57;1.57;;;;;;;;;;5005341;28;20242;-60
2022/08/01 07:17:00;;;;;;;1.93;1.83;;;;;;;;;;5003111;28;20219;-60
2022/08/01 07:19:27;;;;;;;1.90;1.80;;;;;;;;;;5012801;28;20240;-60
2022/08/01 07:21:53;;;;;;;1.60;1.60;;;;;;;;;;5024181;28;20227;-60
2022/08/01 07:24:19;;;;;;;1.90;1.80;;;;;;;;;;5028138;28;20224;-60
2022/08/01 07:26:45;;;;;;;1.80;1.70;;;;;;;;;;5029477;28;20785;-60
2022/08/01 07:29:11;;;;;;;1.80;1.70;;;;;;;;;;5026670;28;20238;-60
2022/08/01 07:31:37;;;;;;;1.60;1.60;;;;;;;;;;5029754;28;20741;-60
2022/08/01 07:34:03;;;;;;;1.80;1.70;;;;;;;;;;5028622;28;20635;-60
2022/08/01 07:36:29;;;;;;;1.60;1.60;;;;;;;;;;5029293;28;20223;-60
2022/08/01 07:38:55;;;;;;;1.90;1.80;;;;;;;;;;5029830;28;20212;-60
2022/08/01 07:41:21;;;;;;;1.70;1.70;;;;;;;;;;5041349;28;20248;-60
2022/08/01 07:43:48;;;;;;;1.83;1.73;;;;;;;;;;5053926;28;20227;-60
2022/08/01 07:46:14;;;;;;;1.90;1.80;;;;;;;;;;5017099;28;20662;-60
2022/08/01 07:48:40;;;;;;;1.83;1.73;;;;;;;;;;5020616;28;20200;-60
2022/08/01 07:51:08;;;;;;;1.80;1.70;;;;;;;;;;5022565;28;20237;-60
2022/08/01 07:53:34;;;;;;;1.80;1.70;;;;;;;;;;5025133;28;20192;-60
2022/08/01 07:56:00;;;;;;;1.77;1.70;;;;;;;;;;5013670;28;20196;-60
2022/08/01 07:58:25;;;;;;;1.90;1.80;;;;;;;;;;5021617;28;20618;-61
2022/08/01 08:00:51;;;;;;;1.90;1.80;;;;;;;;;;5022286;28;20576;-59
2022/08/01 08:03:17;;;;;;;1.90;1.80;;;;;;;;;;5002077;28;20224;-59
2022/08/01 08:05:43;;;;;;;1.70;1.70;;;;;;;;;;5001571;28;20248;-60
2022/08/01 08:08:10;;;;;;;1.80;1.70;;;;;;;;;;5003090;28;20231;-59
2022/08/01 08:10:36;;;;;;;1.60;1.60;;;;;;;;;;5016754;28;20216;-59
2022/08/01 08:13:02;;;;;;;1.70;1.70;;;;;;;;;;5021313;28;20217;-59
2022/08/01 08:15:28;;;;;;;1.95;1.85;;;;;;;;;;5016333;28;20212;-59
2022/08/01 08:17:54;;;;;;;1.88;1.77;;;;;;;;;;5022976;28;20233;-59
2022/08/01 08:20:24;;;;;;;1.90;1.80;;;;;;;;;;5022815;28;20274;-59
2022/08/01 08:22:50;;;;;;;1.83;1.73;;;;;;;;;;5016739;28;20184;-59
2022/08/01 08:25:16;;;;;;;2.08;1.98;;;;;;;;;;5019721;28;20815;-59
2022/08/01 08:27:42;;;;;;;1.95;1.85;;;;;;;;;;5016244;28;20227;-59
2022/08/01 08:30:08;;;;;;;1.90;1.80;;;;;;;;;;5015479;28;20224;-59
2022/08/01 08:32:35;;;;;;;1.90;1.80;;;;;;;;;;5028400;28;20227;-59
2022/08/01 08:35:01;;;;;;;1.80;1.70;;;;;;;;;;5026444;28;20215;-59
2022/08/01 08:37:27;;;;;;;1.88;1.77;;;;;;;;;;5028397;28;20224;-59
2022/08/01 08:39:53;;;;;;;1.90;1.80;;;;;;;;;;5020542;28;20659;-59
2022/08/01 08:42:19;;;;;;;1.60;1.60;;;;;;;;;;5018988;28;21841;-59
2022/08/01 08:44:45;;;;;;;1.80;1.70;;;;;;;;;;5015344;28;20666;-59
2022/08/01 08:47:11;;;;;;;1.70;1.70;;;;;;;;;;5014881;28;20701;-59
2022/08/01 08:49:37;;;;;;;1.83;1.73;;;;;;;;;;5010344;28;21133;-59
2022/08/01 08:52:04;;;;;;;1.60;1.60;;;;;;;;;;5008851;28;20197;-59
2022/08/01 08:54:30;;;;;;;1.60;1.60;;;;;;;;;;5015687;28;20219;-59
2022/08/01 08:56:56;;;;;;;1.70;1.70;;;;;;;;;;5020124;28;20224;-60
2022/08/01 08:59:24;;;;;;;1.60;1.60;;;;;;;;;;5010664;28;20844;-60
2022/08/01 09:01:50;;;;;;;1.70;1.70;;;;;;;;;;5013651;28;20197;-60
2022/08/01 09:04:16;;;;;;;1.60;1.60;;;;;;;;;;5009315;28;20204;-60
2022/08/01 09:06:42;;;;;;;1.60;1.60;;;;;;;;;;5022413;28;20906;-60
2022/08/01 09:09:08;;;;;;;1.75;1.70;;;;;;;;;;5017317;28;20208;-61
2022/08/01 09:11:34;;;;;;;1.70;1.70;;;;;;;;;;5008353;28;20267;-61
2022/08/01 09:14:07;;;;;;;1.60;1.60;;;;;;;;;;5016091;28;20196;-60
2022/08/01 09:16:33;;;;;;;1.60;1.60;;;;;;;;;;5019974;28;20262;-60
2022/08/01 09:19:09;;;;;;;1.70;1.70;;;;;;;;;;5018045;28;20260;-61
2022/08/01 09:21:35;;;;;;;1.60;1.60;;;;;;;;;;5023282;28;20586;-60
2022/08/01 09:24:05;;;;;;;1.80;1.70;;;;;;;;;;5019534;28;20247;-61
2022/08/01 09:26:34;;;;;;;1.70;1.70;;;;;;;;;;5019087;28;20192;-61
2022/08/01 09:29:01;;;;;;;1.85;1.75;;;;;;;;;;5011897;28;20228;-61
2022/08/01 09:31:28;;;;;;;1.90;1.80;;;;;;;;;;5004706;28;20715;-60
2022/08/01 09:34:03;;;;;;;1.70;1.70;;;;;;;;;;5026848;28;20226;-60
2022/08/01 09:36:48;;;;;;;1.75;1.70;;;;;;;;;;5016460;28;20320;-61
2022/08/01 09:39:14;;;;;;;1.60;1.60;;;;;;;;;;5022888;28;20188;-61
2022/08/01 09:41:40;;;;;;;1.80;1.70;;;;;;;;;;5022932;28;20240;-61
2022/08/01 09:44:06;;;;;;;1.50;1.50;;;;;;;;;;5008998;28;20204;-61
2022/08/01 09:46:32;;;;;;;1.60;1.60;;;;;;;;;;5011477;28;20219;-61
2022/08/01 09:48:59;;;;;;;1.83;1.73;;;;;;;;;;5025979;28;20580;-61
2022/08/01 09:51:33;;;;;;;1.60;1.60;;;;;;;;;;5024531;28;20224;-64
2022/08/01 09:53:59;;;;;;;1.60;1.60;;;;;;;;;;5032532;28;20815;-63
2022/08/01 09:56:25;;;;;;;1.50;1.50;;;;;;;;;;5022149;28;20216;-63
2022/08/01 09:58:58;;;;;;;1.50;1.50;;;;;;;;;;5008276;28;20219;-63
2022/08/01 10:01:24;;;;;;;1.58;1.58;;;;;;;;;;5026240;28;20752;-63
2022/08/01 10:04:06;;;;;;;1.60;1.60;;;;;;;;;;5023201;28;20216;-64
2022/08/01 10:06:32;;;;;;;1.90;1.80;;;;;;;;;;5005876;28;20244;-63
2022/08/01 10:08:58;;;;;;;1.50;1.50;;;;;;;;;;5017373;28;20294;-62
2022/08/01 10:11:24;;;;;;;1.50;1.50;;;;;;;;;;5023286;28;20207;-63
2022/08/01 10:13:50;;;;;;;1.65;1.65;;;;;;;;;;5023513;28;20192;-62
2022/08/01 10:16:15;;;;;;;1.45;1.45;;;;;;;;;;5023362;28;20185;-63
2022/08/01 10:18:42;;;;;;;1.40;1.40;;;;;;;;;;5016424;28;20227;-63
2022/08/01 10:21:08;;;;;;;1.40;1.40;;;;;;;;;;5009474;28;20267;-63
2022/08/01 10:23:34;;;;;;;1.70;1.70;;;;;;;;;;5018171;28;20302;-63
2022/08/01 10:26:01;;;;;;;1.10;1.10;;;;;;;;;;5020179;28;20612;-63
2022/08/01 10:28:27;;;;;;;1.50;1.50;;;;;;;;;;5021878;28;20215;-64
2022/08/01 10:30:53;;;;;;;1.50;1.50;;;;;;;;;;5017268;28;20754;-63
2022/08/01 10:33:19;;;;;;;1.40;1.40;;;;;;;;;;5020104;28;20220;-62
2022/08/01 10:35:46;;;;;;;1.50;1.50;;;;;;;;;;5018891;28;20212;-63
2022/08/01 10:38:12;;;;;;;1.60;1.60;;;;;;;;;;5016346;28;20286;-61
2022/08/01 10:40:38;;;;;;;1.50;1.50;;;;;;;;;;5023459;28;20219;-64
2022/08/01 10:43:04;;;;;;;1.60;1.60;;;;;;;;;;5032108;28;20580;-64
2022/08/01 10:45:30;;;;;;;1.40;1.40;;;;;;;;;;5010554;28;20299;-68
2022/08/01 10:48:05;;;;;;;1.45;1.45;;;;;;;;;;5009619;28;20233;-67
2022/08/01 10:50:35;;;;;;;1.50;1.50;;;;;;;;;;5028195;28;20703;-67
2022/08/01 10:53:04;;;;;;;1.50;1.50;;;;;;;;;;5002533;28;20220;-67
2022/08/01 10:55:30;;;;;;;1.50;1.50;;;;;;;;;;5034148;28;20239;-67
2022/08/01 10:57:56;;;;;;;1.77;1.70;;;;;;;;;;5006166;28;20235;-68
2022/08/01 11:00:22;;;;;;;1.60;1.60;;;;;;;;;;4999258;28;20812;-67
2022/08/01 11:03:02;;;;;;;1.52;1.52;;;;;;;;;;5011320;28;20218;-67
2022/08/01 11:05:29;;;;;;;1.60;1.60;;;;;;;;;;5015086;28;20216;-68
2022/08/01 11:07:55;;;;;;;1.58;1.58;;;;;;;;;;5003116;28;21437;-68
2022/08/01 11:10:31;;;;;;;1.60;1.60;;;;;;;;;;5024403;28;20216;-63
2022/08/01 11:12:58;;;;;;;1.55;1.55;;;;;;;;;;5019040;28;20228;-66
2022/08/01 11:15:24;;;;;;;1.60;1.60;;;;;;;;;;5012645;28;20231;-67
2022/08/01 11:17:51;;;;;;;1.52;1.52;;;;;;;;;;5024010;28;20354;-69
2022/08/01 11:20:18;;;;;;;1.50;1.50;;;;;;;;;;5006556;28;20240;-63
2022/08/01 11:25:38;;;;;;;1.60;1.60;;;;;;;;;;5023059;28;20293;-63
2022/08/01 11:28:16;;;;;;;1.50;1.50;;;;;;;;;;5031849;28;20224;-63
2022/08/01 11:31:01;;;;;;;1.80;1.70;;;;;;;;;;5021355;28;20313;-63
2022/08/01 11:33:42;;;;;;;1.60;1.60;;;;;;;;;;5024702;28;20219;-66
2022/08/01 11:36:11;;;;;;;1.75;1.70;;;;;;;;;;5016159;28;20225;-63
2022/08/01 11:39:03;;;;;;;1.60;1.60;;;;;;;;;;5022603;28;21008;-60
2022/08/01 11:41:30;;;;;;;1.80;1.70;;;;;;;;;;5007871;28;20576;-59
2022/08/01 11:44:09;;;;;;;1.50;1.50;;;;;;;;;;5015724;28;20199;-59
2022/08/01 11:46:55;;;;;;;1.50;1.50;;;;;;;;;;5013843;28;20220;-60
2022/08/01 11:49:27;;;;;;;1.50;1.50;;;;;;;;;;5032651;28;20228;-59
2022/08/01 11:52:04;;;;;;;1.60;1.60;;;;;;;;;;5026386;28;20216;-59
2022/08/01 11:54:32;;;;;;;1.58;1.58;;;;;;;;;;5023177;28;20201;-59
2022/08/01 11:57:02;;;;;;;1.50;1.50;;;;;;;;;;5026017;28;20583;-59
2022/08/01 11:59:28;;;;;;;1.50;1.50;;;;;;;;;;5026800;28;20216;-59
2022/08/01 12:01:54;;;;;;;1.90;1.80;;;;;;;;;;5029279;28;20222;-59
2022/08/01 12:04:20;;;;;;;1.60;1.60;;;;;;;;;;5025964;28;20224;-59
2022/08/01 12:06:46;;;;;;;1.52;1.52;;;;;;;;;;5029286;28;20248;-59
2022/08/01 12:09:19;;;;;;;2.00;1.90;;;;;;;;;;5026649;28;20244;-59
2022/08/01 12:11:45;;;;;;;1.65;1.65;;;;;;;;;;5032494;28;20283;-59
2022/08/01 12:14:16;;;;;;;1.63;1.63;;;;;;;;;;5021232;28;20238;-59
2022/08/01 12:16:48;;;;;;;1.10;1.10;;;;;;;;;;5008208;28;20229;-60
2022/08/01 12:19:18;;;;;;;1.73;1.67;;;;;;;;;;5024423;28;20223;-60
2022/08/01 12:21:44;;;;;;;1.40;1.40;;;;;;;;;;5031859;28;20283;-60
2022/08/01 12:24:10;;;;;;;1.40;1.40;;;;;;;;;;5028555;28;20228;-59
2022/08/01 12:26:40;;;;;;;1.60;1.60;;;;;;;;;;5025633;28;20958;-60
2022/08/01 12:29:06;;;;;;;1.52;1.52;;;;;;;;;;5028347;28;20244;-60
2022/08/01 12:31:33;;;;;;;1.50;1.50;;;;;;;;;;5034626;28;20231;-60
2022/08/01 12:33:59;;;;;;;1.40;1.40;;;;;;;;;;5035672;28;20208;-60
2022/08/01 12:36:28;;;;;;;1.40;1.40;;;;;;;;;;5038100;28;20212;-60
2022/08/01 12:38:56;;;;;;;1.60;1.60;;;;;;;;;;5016939;28;20227;-60
2022/08/01 12:41:22;;;;;;;1.30;1.30;;;;;;;;;;5009661;28;20336;-59
2022/08/01 12:43:48;;;;;;;1.50;1.50;;;;;;;;;;5013869;28;20216;-60
2022/08/01 12:46:17;;;;;;;1.50;1.50;;;;;;;;;;5015461;28;20228;-60
2022/08/01 12:48:43;;;;;;;1.40;1.40;;;;;;;;;;5009743;28;20717;-60
2022/08/01 12:51:09;;;;;;;1.40;1.40;;;;;;;;;;5007601;28;20223;-60
2022/08/01 12:53:35;;;;;;;1.60;1.60;;;;;;;;;;5018172;28;20209;-60
2022/08/01 12:56:01;;;;;;;1.60;1.60;;;;;;;;;;5022898;28;20234;-60
2022/08/01 12:58:33;;;;;;;1.60;1.60;;;;;;;;;;5017395;28;20232;-59
2022/08/01 13:01:03;;;;;;;1.60;1.60;;;;;;;;;;5024464;28;21857;-59
2022/08/01 13:03:29;;;;;;;1.40;1.40;;;;;;;;;;5026646;28;20795;-60
2022/08/01 13:05:56;;;;;;;1.40;1.40;;;;;;;;;;5022693;28;20212;-60
2022/08/01 13:08:22;;;;;;;1.38;1.38;;;;;;;;;;5004644;28;20324;-61
2022/08/01 13:10:48;;;;;;;1.40;1.40;;;;;;;;;;5026600;28;20628;-63
2022/08/01 13:13:15;;;;;;;1.33;1.33;;;;;;;;;;5017946;28;20223;-62
2022/08/01 13:15:43;;;;;;;1.90;1.80;;;;;;;;;;5019410;28;20200;-63
2022/08/01 13:18:25;;;;;;;1.30;1.30;;;;;;;;;;5012963;28;20240;-63
2022/08/01 13:21:07;;;;;;;1.80;1.70;;;;;;;;;;5015986;28;20315;-62
2022/08/01 13:23:33;;;;;;;1.90;1.80;;;;;;;;;;5024673;28;20302;-62
2022/08/01 13:25:58;;;;;;;1.90;1.80;;;;;;;;;;5017291;28;20220;-63
2022/08/01 13:28:25;;;;;;;1.70;1.70;;;;;;;;;;5019210;28;20309;-62
2022/08/01 13:30:52;;;;;;;1.80;1.70;;;;;;;;;;5014628;28;20203;-63
2022/08/01 13:33:18;;;;;;;1.60;1.60;;;;;;;;;;5023516;28;20224;-60
2022/08/01 13:35:44;;;;;;;1.92;1.83;;;;;;;;;;5019683;28;20235;-60
2022/08/01 13:38:10;;;;;;;2.00;1.90;;;;;;;;;;5012506;28;20274;-60
2022/08/01 13:40:36;;;;;;;2.00;1.90;;;;;;;;;;5021837;28;20229;-61
2022/08/01 13:43:02;;;;;;;1.90;1.80;;;;;;;;;;5020020;28;20207;-61
2022/08/01 13:45:27;;;;;;;2.10;2.00;;;;;;;;;;5016576;28;20204;-60
